createdAt,value
2022-12-25T00:00:20.263Z,7.99
2022-12-25T00:05:22.255Z,7.98
2022-12-25T00:10:23.778Z,7.95
2022-12-25T00:15:25.150Z,7.84
2022-12-25T00:20:26.466Z,7.73
2022-12-25T00:25:27.843Z,7.69
2022-12-25T00:30:29.166Z,7.63
2022-12-25T00:35:30.500Z,7.54
2022-12-25T00:40:31.816Z,7.39
2022-12-25T00:45:33.162Z,7.29
2022-12-25T00:50:34.559Z,7.26
2022-12-25T00:55:35.965Z,7.24
2022-12-25T01:00:38.759Z,7.23
2022-12-25T01:05:40.085Z,7.22
2022-12-25T01:10:41.487Z,7.16
2022-12-25T01:15:42.784Z,7.09
2022-12-25T01:20:44.099Z,7.05
2022-12-25T01:25:45.456Z,7.03
2022-12-25T01:30:49.918Z,7.03
2022-12-25T01:35:51.273Z,7.02
2022-12-25T01:40:53.631Z,6.97
2022-12-25T01:45:55.027Z,6.92
2022-12-25T01:51:01.501Z,6.82
2022-12-25T01:56:05.661Z,6.78
2022-12-25T02:01:07.989Z,6.85
2022-12-25T02:06:09.458Z,6.91
2022-12-25T02:11:30.733Z,6.92
2022-12-25T02:16:35.353Z,6.82
2022-12-25T02:22:05.743Z,6.86
2022-12-25T02:27:11.617Z,6.85
2022-12-25T02:32:16.070Z,6.84
2022-12-25T02:37:23.358Z,6.80
2022-12-25T02:42:47.748Z,6.77
2022-12-25T02:48:07.978Z,6.76
2022-12-25T02:53:28.249Z,6.70
2022-12-25T02:58:49.162Z,6.67
2022-12-25T03:04:12.239Z,6.64
2022-12-25T03:09:36.988Z,6.65
2022-12-25T03:14:57.478Z,6.66
2022-12-25T03:20:22.758Z,6.68
2022-12-25T03:25:42.675Z,6.66
2022-12-25T03:31:11.850Z,6.66
2022-12-25T03:36:19.104Z,6.66
2022-12-25T03:41:39.242Z,6.65
2022-12-25T03:47:05.321Z,6.61
2022-12-25T03:52:26.648Z,6.54
2022-12-25T03:57:46.387Z,6.48
2022-12-25T04:03:06.665Z,6.35
2022-12-25T04:08:26.586Z,6.24
2022-12-25T04:13:46.461Z,6.19
2022-12-25T04:19:06.217Z,6.19
2022-12-25T04:24:26.246Z,6.21
2022-12-25T04:29:46.070Z,6.22
2022-12-25T04:35:06.225Z,6.25
2022-12-25T04:40:08.005Z,6.28
2022-12-25T04:45:09.622Z,6.25
2022-12-25T04:50:11.216Z,6.13
2022-12-25T04:55:12.555Z,5.99
2022-12-25T05:00:13.998Z,5.90
2022-12-25T05:05:15.401Z,5.86
2022-12-25T05:10:16.783Z,5.87
2022-12-25T05:15:18.222Z,5.88
2022-12-25T05:20:19.533Z,5.89
2022-12-25T05:25:20.873Z,5.88
2022-12-25T05:30:22.238Z,5.89
2022-12-25T05:35:23.597Z,5.90
2022-12-25T05:40:24.913Z,5.87
2022-12-25T05:45:26.325Z,5.83
2022-12-25T05:50:27.652Z,5.78
2022-12-25T05:55:39.749Z,5.79
2022-12-25T06:00:43.219Z,5.77
2022-12-25T06:05:44.641Z,5.78
2022-12-25T06:10:46.093Z,5.82
2022-12-25T06:15:47.410Z,5.88
2022-12-25T06:20:48.856Z,5.93
2022-12-25T06:25:50.186Z,5.98
2022-12-25T06:30:51.593Z,6.04
2022-12-25T06:35:52.929Z,6.06
2022-12-25T06:40:54.246Z,6.01
2022-12-25T06:45:55.577Z,5.91
2022-12-25T06:50:56.916Z,5.91
2022-12-25T06:56:05.577Z,5.88
2022-12-25T07:01:15.050Z,5.87
2022-12-25T07:06:16.667Z,5.87
2022-12-25T07:11:18.120Z,5.88
2022-12-25T07:16:20.095Z,5.89
2022-12-25T07:21:21.736Z,5.90
2022-12-25T07:26:23.050Z,5.91
2022-12-25T07:31:24.459Z,5.98
2022-12-25T07:36:25.860Z,6.06
2022-12-25T07:41:27.254Z,6.11
2022-12-25T07:46:47.604Z,6.21
2022-12-25T07:51:48.919Z,6.26
2022-12-25T07:56:51.833Z,6.30
2022-12-25T08:01:53.425Z,6.31
2022-12-25T08:06:55.000Z,6.33
2022-12-25T08:11:56.315Z,6.36
2022-12-25T08:22:55.966Z,6.48
2022-12-25T08:28:37.556Z,6.59
2022-12-25T08:33:38.968Z,6.76
2022-12-25T08:38:40.741Z,6.88
2022-12-25T08:43:42.228Z,7.00
2022-12-25T08:48:44.372Z,7.18
2022-12-25T08:53:47.060Z,7.42
2022-12-25T08:58:48.450Z,7.70
2022-12-25T09:03:49.926Z,7.85
2022-12-25T09:08:51.389Z,7.90
2022-12-25T09:13:52.782Z,7.92
2022-12-25T09:18:55.749Z,7.94
2022-12-25T09:23:57.228Z,7.97
2022-12-25T09:28:58.691Z,8.02
2022-12-25T09:34:00.033Z,8.12
2022-12-25T09:39:01.700Z,8.20
2022-12-25T09:44:07.930Z,8.29
2022-12-25T09:49:27.528Z,8.34
2022-12-25T09:54:36.502Z,8.42
2022-12-25T09:59:38.050Z,8.48
2022-12-25T10:05:05.480Z,8.56
2022-12-25T10:10:18.227Z,8.67
2022-12-25T10:15:30.236Z,8.87
2022-12-25T10:20:42.710Z,9.09
2022-12-25T10:25:44.561Z,9.29
2022-12-25T10:30:46.039Z,9.46
2022-12-25T10:35:47.591Z,9.60
2022-12-25T10:40:51.930Z,9.75
2022-12-25T10:45:53.451Z,9.95
2022-12-25T10:50:55.603Z,10.06
2022-12-25T10:56:01.466Z,10.06
2022-12-25T11:01:04.973Z,10.18
2022-12-25T11:06:23.316Z,10.34
2022-12-25T11:11:25.337Z,10.55
2022-12-25T11:16:36.055Z,10.83
2022-12-25T11:21:37.622Z,11.06
2022-12-25T11:26:48.252Z,11.14
2022-12-25T11:31:50.979Z,11.12
2022-12-25T11:36:52.583Z,11.04
2022-12-25T11:41:58.276Z,11.02
2022-12-25T11:47:03.410Z,11.01
2022-12-25T11:52:06.533Z,10.99
2022-12-25T11:57:11.332Z,10.94
2022-12-25T12:02:48.659Z,10.86
2022-12-25T12:07:55.504Z,10.77
2022-12-25T12:13:00.108Z,10.76
2022-12-25T12:18:09.201Z,10.71
2022-12-25T12:23:14.732Z,10.64
2022-12-25T12:28:29.690Z,10.61
2022-12-25T12:33:37.821Z,10.54
2022-12-25T12:38:41.099Z,10.51
2022-12-25T12:43:45.055Z,10.55
2022-12-25T12:48:48.121Z,10.49
2022-12-25T12:53:49.677Z,10.39
2022-12-25T12:58:51.283Z,10.29
2022-12-25T13:03:52.652Z,10.29
2022-12-25T13:09:03.730Z,10.33
2022-12-25T13:14:05.509Z,10.36
2022-12-25T13:19:14.673Z,10.39
2022-12-25T13:24:20.939Z,10.42
2022-12-25T13:29:29.873Z,10.45
2022-12-25T13:34:36.182Z,10.41
2022-12-25T13:39:48.697Z,10.39
2022-12-25T13:44:55.568Z,10.38
2022-12-25T13:49:57.676Z,10.37
2022-12-25T13:55:00.410Z,10.33
2022-12-25T14:00:02.352Z,10.32
2022-12-25T14:05:24.667Z,10.33
2022-12-25T14:10:28.880Z,10.36
2022-12-25T14:15:31.617Z,10.40
2022-12-25T14:20:53.986Z,10.41
2022-12-25T14:25:55.491Z,10.39
2022-12-25T14:30:57.383Z,10.36
2022-12-25T14:35:58.963Z,10.26
2022-12-25T14:41:00.462Z,10.21
2022-12-25T14:46:03.429Z,10.14
2022-12-25T14:51:15.482Z,10.11
2022-12-25T14:56:20.208Z,10.12
2022-12-25T15:01:23.349Z,10.13
2022-12-25T15:06:25.033Z,10.15
2022-12-25T15:11:26.889Z,10.16
2022-12-25T15:16:29.764Z,10.20
2022-12-25T15:21:33.032Z,10.17
2022-12-25T15:26:34.471Z,10.16
2022-12-25T15:31:37.198Z,10.16
2022-12-25T15:36:38.590Z,10.21
2022-12-25T15:41:59.237Z,10.24
2022-12-25T15:47:00.579Z,10.23
2022-12-25T15:52:03.643Z,10.23
2022-12-25T15:57:06.636Z,10.27
2022-12-25T16:02:15.314Z,10.33
2022-12-25T16:07:21.569Z,10.40
2022-12-25T16:12:23.093Z,10.45
2022-12-25T16:17:24.516Z,10.46
2022-12-25T16:22:26.045Z,10.49
2022-12-25T16:27:27.405Z,10.52
2022-12-25T16:32:29.147Z,10.55
2022-12-25T16:37:30.557Z,10.57
2022-12-25T16:42:32.049Z,10.64
2022-12-25T16:47:33.777Z,10.76
2022-12-25T16:52:35.685Z,10.81
2022-12-25T16:57:37.126Z,10.81
2022-12-25T17:02:40.283Z,10.77
2022-12-25T17:07:42.923Z,10.68
2022-12-25T17:12:45.593Z,10.61
2022-12-25T17:17:47.046Z,10.58
2022-12-25T17:22:48.796Z,10.58
2022-12-25T17:27:50.643Z,10.61
2022-12-25T17:32:52.276Z,10.63
2022-12-25T17:37:53.718Z,10.64
2022-12-25T17:42:55.571Z,10.62
2022-12-25T17:47:57.433Z,10.56
2022-12-25T17:52:58.884Z,10.50
2022-12-25T17:58:00.485Z,10.50
2022-12-25T18:03:07.251Z,10.54
2022-12-25T18:08:12.298Z,10.61
2022-12-25T18:13:13.709Z,10.64
2022-12-25T18:18:15.299Z,10.67
2022-12-25T18:23:16.765Z,10.75
2022-12-25T18:28:19.445Z,10.80
2022-12-25T18:33:21.272Z,10.86
2022-12-25T18:38:22.723Z,10.95
2022-12-25T18:43:51.453Z,11.05
2022-12-25T18:48:45.547Z,11.17
2022-12-25T18:53:47.145Z,11.26
2022-12-25T18:58:48.945Z,11.33
2022-12-25T19:03:51.005Z,11.41
2022-12-25T19:08:53.162Z,11.49
2022-12-25T19:13:54.566Z,11.56
2022-12-25T19:18:56.947Z,11.61
2022-12-25T19:23:58.371Z,11.63
2022-12-25T19:28:59.734Z,11.63
2022-12-25T19:34:01.303Z,11.65
2022-12-25T19:39:03.350Z,11.68
2022-12-25T19:44:05.534Z,11.68
2022-12-25T19:49:07.795Z,11.69
2022-12-25T19:54:14.291Z,11.71
2022-12-25T19:59:15.985Z,11.71
2022-12-25T20:04:18.213Z,11.70
2022-12-25T20:09:21.495Z,11.71
2022-12-25T20:14:23.262Z,11.69
2022-12-25T20:19:24.698Z,11.69
2022-12-25T20:24:26.129Z,11.69
2022-12-25T20:29:27.528Z,11.67
2022-12-25T20:34:29.027Z,11.67
2022-12-25T20:39:30.852Z,11.67
2022-12-25T20:44:32.274Z,11.67
2022-12-25T20:49:34.669Z,11.67
2022-12-25T20:54:36.791Z,11.69
2022-12-25T20:59:38.221Z,11.71
2022-12-25T21:04:39.723Z,11.71
2022-12-25T21:09:41.148Z,11.71
2022-12-25T21:14:42.529Z,11.67
2022-12-25T21:19:44.092Z,11.65
2022-12-25T21:24:45.451Z,11.62
2022-12-25T21:29:47.063Z,11.57
2022-12-25T21:34:48.640Z,11.52
2022-12-25T21:39:50.476Z,11.46
2022-12-25T21:44:51.852Z,11.41
2022-12-25T21:50:12.131Z,11.35
2022-12-25T21:55:13.593Z,11.26
2022-12-25T22:00:15.057Z,11.25
2022-12-25T22:05:35.219Z,11.31
2022-12-25T22:10:36.646Z,11.37
2022-12-25T22:15:56.672Z,11.44
2022-12-25T22:20:59.051Z,11.48
2022-12-25T22:26:00.431Z,11.52
2022-12-25T22:31:05.097Z,11.56
2022-12-25T22:36:07.477Z,11.57
2022-12-25T22:41:09.125Z,11.63
2022-12-25T22:46:10.569Z,11.69
2022-12-25T22:51:11.949Z,11.76
2022-12-25T22:56:14.132Z,11.82
2022-12-25T23:01:16.959Z,11.88
2022-12-25T23:06:18.396Z,11.89
2022-12-25T23:11:19.780Z,11.88
2022-12-25T23:16:21.204Z,11.86
2022-12-25T23:21:43.506Z,11.87
2022-12-25T23:26:44.859Z,11.89
2022-12-25T23:31:53.391Z,11.91
2022-12-25T23:36:54.786Z,11.89
2022-12-25T23:41:56.174Z,11.82
2022-12-25T23:46:57.651Z,11.83
2022-12-25T23:51:59.087Z,11.86
2022-12-25T23:57:00.864Z,11.88
